createdAt,value
2023-02-11T00:00:42.119Z,73.53
2023-02-11T00:03:09.390Z,68.27
2023-02-11T00:05:36.331Z,66.73
2023-02-11T00:08:03.641Z,72.27
2023-02-11T00:10:30.494Z,70.17
2023-02-11T00:12:59.700Z,69.80
2023-02-11T00:15:26.545Z,74.00
2023-02-11T00:17:53.374Z,73.00
2023-02-11T00:20:20.136Z,75.17
2023-02-11T00:22:46.953Z,71.73
2023-02-11T00:25:13.711Z,76.70
2023-02-11T00:27:40.566Z,70.67
2023-02-11T00:30:07.887Z,73.60
2023-02-11T00:32:39.316Z,74.67
2023-02-11T00:35:06.441Z,70.67
2023-02-11T00:37:36.365Z,66.53
2023-02-11T00:40:06.719Z,78.57
2023-02-11T00:42:35.667Z,73.50
2023-02-11T00:45:03.417Z,64.87
2023-02-11T00:47:30.222Z,70.40
2023-02-11T00:49:57.148Z,67.70
2023-02-11T00:52:23.899Z,71.17
2023-02-11T00:54:50.685Z,69.03
2023-02-11T00:57:17.433Z,67.60
2023-02-11T00:59:44.301Z,70.70
2023-02-11T01:02:11.075Z,70.30
2023-02-11T01:04:37.978Z,65.43
2023-02-11T01:07:06.013Z,69.10
2023-02-11T01:09:32.723Z,64.83
2023-02-11T01:11:59.710Z,69.47
2023-02-11T01:14:26.540Z,78.57
2023-02-11T01:16:53.287Z,69.50
2023-02-11T01:19:20.024Z,76.47
2023-02-11T01:21:46.790Z,69.13
2023-02-11T01:24:13.589Z,72.47
2023-02-11T01:26:40.330Z,68.90
2023-02-11T01:29:07.222Z,70.10
2023-02-11T01:31:34.075Z,67.03
2023-02-11T01:34:01.223Z,65.87
2023-02-11T01:36:28.054Z,76.97
2023-02-11T01:38:54.861Z,72.83
2023-02-11T01:41:21.684Z,74.03
2023-02-11T01:43:49.895Z,66.13
2023-02-11T01:46:37.050Z,73.00
2023-02-11T01:49:03.846Z,69.00
2023-02-11T01:51:51.522Z,70.23
2023-02-11T01:54:41.079Z,67.47
2023-02-11T01:57:22.707Z,66.87
2023-02-11T01:59:58.164Z,67.00
2023-02-11T02:02:39.787Z,75.23
2023-02-11T02:05:25.142Z,72.67
2023-02-11T02:08:04.378Z,74.07
2023-02-11T02:10:34.087Z,67.97
2023-02-11T02:13:00.982Z,69.30
2023-02-11T02:15:34.037Z,67.77
2023-02-11T02:18:26.616Z,65.03
2023-02-11T02:21:14.474Z,71.43
2023-02-11T02:24:02.279Z,70.87
2023-02-11T02:26:44.138Z,74.07
2023-02-11T02:29:55.229Z,75.40
2023-02-11T02:32:42.760Z,72.20
2023-02-11T02:35:15.445Z,72.87
2023-02-11T02:38:06.539Z,70.07
2023-02-11T02:40:39.309Z,74.20
2023-02-11T02:43:09.008Z,70.30
2023-02-11T02:45:35.776Z,65.87
2023-02-11T02:48:02.521Z,77.07
2023-02-11T02:50:34.894Z,74.23
2023-02-11T02:53:10.567Z,78.70
2023-02-11T02:56:09.294Z,70.90
2023-02-11T02:59:02.422Z,75.07
2023-02-11T03:01:54.613Z,69.53
2023-02-11T03:04:34.867Z,73.07
2023-02-11T03:07:40.619Z,67.80
2023-02-11T03:10:25.767Z,70.00
2023-02-11T03:12:54.482Z,73.77
2023-02-11T03:15:24.474Z,70.70
2023-02-11T03:17:54.182Z,69.73
2023-02-11T03:20:22.865Z,66.33
2023-02-11T03:22:52.516Z,68.27
2023-02-11T03:25:22.636Z,64.03
2023-02-11T03:28:07.010Z,65.50
2023-02-11T03:30:47.555Z,71.90
2023-02-11T03:33:29.028Z,70.00
2023-02-11T03:36:04.262Z,78.53
2023-02-11T03:38:42.006Z,65.27
2023-02-11T03:41:10.790Z,69.20
2023-02-11T03:43:42.786Z,70.60
2023-02-11T03:46:12.485Z,64.33
2023-02-11T03:48:42.353Z,62.40
2023-02-11T03:51:12.216Z,62.70
2023-02-11T03:53:43.206Z,65.57
2023-02-11T03:56:17.782Z,62.43
2023-02-11T03:58:46.087Z,65.20
2023-02-11T04:01:13.028Z,64.63
2023-02-11T04:03:40.094Z,64.37
2023-02-11T04:06:07.109Z,65.07
2023-02-11T04:08:34.050Z,64.67
2023-02-11T04:11:00.831Z,61.80
2023-02-11T04:13:27.648Z,65.83
2023-02-11T04:15:54.752Z,63.70
2023-02-11T04:18:21.789Z,56.70
2023-02-11T04:20:50.297Z,59.77
2023-02-11T04:23:17.279Z,59.87
2023-02-11T04:25:44.049Z,62.50
2023-02-11T04:28:10.839Z,61.03
2023-02-11T04:30:37.663Z,65.33
2023-02-11T04:33:04.573Z,66.57
2023-02-11T04:35:31.383Z,61.70
2023-02-11T04:37:58.863Z,72.13
2023-02-11T04:40:28.436Z,66.87
2023-02-11T04:42:55.175Z,61.17
2023-02-11T04:45:21.895Z,67.37
2023-02-11T04:47:48.702Z,60.83
2023-02-11T04:50:15.713Z,62.20
2023-02-11T04:52:42.542Z,61.10
2023-02-11T04:55:09.471Z,62.27
2023-02-11T04:57:36.337Z,60.47
2023-02-11T05:00:03.964Z,54.67
2023-02-11T05:02:30.778Z,52.53
2023-02-11T05:04:57.495Z,55.57
2023-02-11T05:07:24.384Z,52.10
2023-02-11T05:09:51.118Z,57.80
2023-02-11T05:12:17.883Z,54.17
2023-02-11T05:14:44.827Z,55.13
2023-02-11T05:17:11.621Z,52.13
2023-02-11T05:19:38.426Z,58.40
2023-02-11T05:22:05.227Z,52.57
2023-02-11T05:24:32.831Z,56.23
2023-02-11T05:27:00.387Z,60.07
2023-02-11T05:29:27.409Z,55.27
2023-02-11T05:31:54.275Z,55.93
2023-02-11T05:34:21.153Z,51.90
2023-02-11T05:36:47.858Z,56.67
2023-02-11T05:39:14.718Z,53.60
2023-02-11T05:41:41.513Z,51.60
2023-02-11T05:44:08.278Z,53.83
2023-02-11T05:46:35.081Z,54.43
2023-02-11T05:49:02.132Z,49.93
2023-02-11T05:51:30.366Z,58.50
2023-02-11T05:53:57.170Z,59.13
2023-02-11T05:56:23.889Z,54.90
2023-02-11T05:58:50.701Z,49.03
2023-02-11T06:01:17.620Z,57.53
2023-02-11T06:03:44.461Z,59.63
2023-02-11T06:06:12.582Z,53.50
2023-02-11T06:08:40.051Z,48.87
2023-02-11T06:11:06.836Z,53.13
2023-02-11T06:13:33.667Z,52.37
2023-02-11T06:16:01.779Z,57.00
2023-02-11T06:18:29.571Z,49.00
2023-02-11T06:20:56.395Z,51.27
2023-02-11T06:23:23.332Z,50.33
2023-02-11T06:25:50.827Z,53.60
2023-02-11T06:28:17.896Z,52.00
2023-02-11T06:30:44.995Z,51.23
2023-02-11T06:33:11.894Z,53.33
2023-02-11T06:35:39.359Z,50.33
2023-02-11T06:38:06.198Z,49.40
2023-02-11T06:40:32.951Z,51.63
2023-02-11T06:42:59.723Z,56.93
2023-02-11T06:45:26.486Z,53.33
2023-02-11T06:47:53.453Z,51.90
2023-02-11T06:50:20.391Z,58.23
2023-02-11T06:52:47.118Z,56.70
2023-02-11T06:55:14.457Z,52.33
2023-02-11T06:57:41.254Z,50.60
2023-02-11T07:00:09.102Z,63.83
2023-02-11T07:02:36.357Z,48.53
2023-02-11T07:05:04.902Z,52.97
2023-02-11T07:07:34.147Z,41.07
2023-02-11T07:10:03.151Z,46.23
2023-02-11T07:12:30.708Z,46.37
2023-02-11T07:14:57.787Z,47.37
2023-02-11T07:17:24.609Z,42.00
2023-02-11T07:19:51.539Z,42.47
2023-02-11T07:22:18.301Z,41.97
2023-02-11T07:24:45.205Z,42.07
2023-02-11T07:27:12.300Z,42.93
2023-02-11T07:29:39.125Z,42.97
2023-02-11T07:32:06.225Z,46.43
2023-02-11T07:34:33.253Z,60.60
2023-02-11T07:37:00.276Z,41.63
2023-02-11T07:39:30.008Z,45.67
2023-02-11T07:41:56.944Z,42.33
2023-02-11T07:44:23.827Z,43.77
2023-02-11T07:46:50.770Z,42.93
2023-02-11T07:49:17.638Z,40.80
2023-02-11T07:51:44.434Z,42.43
2023-02-11T07:54:12.304Z,50.70
2023-02-11T07:56:39.066Z,38.07
2023-02-11T07:59:05.856Z,38.90
2023-02-11T08:01:32.813Z,41.33
2023-02-11T08:04:01.501Z,44.23
2023-02-11T08:06:36.334Z,36.93
2023-02-11T08:09:08.904Z,38.47
2023-02-11T08:11:35.823Z,35.33
2023-02-11T08:14:02.868Z,35.47
2023-02-11T08:16:32.384Z,31.97
2023-02-11T08:19:02.076Z,33.77
2023-02-11T08:21:29.648Z,30.17
2023-02-11T08:23:56.794Z,31.70
2023-02-11T08:26:27.211Z,33.60
2023-02-11T08:28:55.510Z,28.77
2023-02-11T08:31:24.109Z,31.77
2023-02-11T08:33:51.626Z,28.17
2023-02-11T08:36:23.246Z,28.63
2023-02-11T08:38:50.495Z,28.40
2023-02-11T08:41:18.160Z,30.53
2023-02-11T08:43:46.042Z,29.67
2023-02-11T08:46:18.437Z,27.20
2023-02-11T08:48:46.556Z,29.67
2023-02-11T08:51:19.924Z,30.43
2023-02-11T08:53:47.118Z,31.33
2023-02-11T08:56:15.250Z,30.17
2023-02-11T08:58:42.878Z,24.57
2023-02-11T09:01:15.035Z,29.30
2023-02-11T09:03:42.201Z,30.60
2023-02-11T09:06:11.094Z,31.17
2023-02-11T09:08:40.132Z,26.07
2023-02-11T09:11:07.694Z,27.53
2023-02-11T09:13:36.017Z,26.50
2023-02-11T09:16:04.736Z,26.73
2023-02-11T09:18:32.397Z,29.43
2023-02-11T09:21:07.422Z,38.23
2023-02-11T09:23:35.072Z,34.87
2023-02-11T09:26:09.791Z,31.57
2023-02-11T09:28:36.808Z,31.97
2023-02-11T09:31:08.027Z,31.30
2023-02-11T09:33:35.572Z,45.73
2023-02-11T09:36:03.903Z,31.73
2023-02-11T09:38:31.071Z,30.40
2023-02-11T09:40:57.863Z,30.73
2023-02-11T09:43:43.399Z,26.53
2023-02-11T09:46:15.055Z,23.60
2023-02-11T09:48:45.553Z,28.80
2023-02-11T09:51:54.740Z,26.67
2023-02-11T09:54:50.976Z,27.60
2023-02-11T09:57:28.302Z,25.87
2023-02-11T09:59:57.281Z,25.97
2023-02-11T10:02:59.333Z,24.80
2023-02-11T10:05:43.143Z,25.53
2023-02-11T10:08:39.714Z,24.63
2023-02-11T10:11:31.515Z,29.17
2023-02-11T10:14:10.822Z,23.73
2023-02-11T10:16:53.565Z,25.27
2023-02-11T10:19:43.065Z,25.40
2023-02-11T10:22:22.688Z,25.07
2023-02-11T10:24:58.488Z,23.33
2023-02-11T10:27:30.835Z,24.10
2023-02-11T10:30:02.814Z,27.27
2023-02-11T10:32:47.018Z,23.83
2023-02-11T10:35:22.329Z,26.37
2023-02-11T10:37:49.766Z,23.83
2023-02-11T10:40:26.189Z,26.13
2023-02-11T10:42:56.248Z,27.43
2023-02-11T10:45:45.376Z,26.53
2023-02-11T10:48:49.460Z,26.97
2023-02-11T10:51:28.501Z,26.43
2023-02-11T10:54:04.241Z,36.57
2023-02-11T10:56:34.854Z,27.73
2023-02-11T10:59:07.784Z,36.00
2023-02-11T11:01:53.238Z,27.00
2023-02-11T11:04:45.394Z,29.03
2023-02-11T11:07:12.122Z,29.03
2023-02-11T11:10:05.234Z,54.83
2023-02-11T11:12:51.517Z,105.30
2023-02-11T11:15:30.755Z,23.10
2023-02-11T11:18:23.035Z,24.33
2023-02-11T11:21:00.747Z,25.70
2023-02-11T11:23:29.742Z,23.83
2023-02-11T11:26:05.499Z,22.67
2023-02-11T11:28:53.912Z,22.07
2023-02-11T11:31:34.428Z,20.80
2023-02-11T11:34:16.975Z,22.17
2023-02-11T11:36:44.441Z,20.03
2023-02-11T11:39:20.439Z,22.87
2023-02-11T11:41:54.285Z,20.13
2023-02-11T11:44:27.853Z,21.03
2023-02-11T11:47:15.833Z,19.67
2023-02-11T11:50:21.168Z,20.93
2023-02-11T11:53:01.192Z,21.13
2023-02-11T11:55:42.225Z,20.03
2023-02-11T11:58:17.182Z,18.13
2023-02-11T12:01:04.640Z,20.87
2023-02-11T12:03:56.225Z,19.47
2023-02-11T12:07:04.905Z,21.67
2023-02-11T12:09:37.779Z,21.13
2023-02-11T12:12:23.604Z,20.50
2023-02-11T12:14:53.025Z,19.90
2023-02-11T12:17:39.968Z,17.60
2023-02-11T12:20:32.083Z,18.97
2023-02-11T12:23:17.360Z,27.53
2023-02-11T12:25:55.153Z,22.70
2023-02-11T12:28:29.512Z,17.43
2023-02-11T12:31:25.697Z,15.57
2023-02-11T12:34:18.348Z,20.97
2023-02-11T12:37:03.176Z,17.63
2023-02-11T12:40:03.795Z,15.13
2023-02-11T12:43:02.611Z,16.37
2023-02-11T12:45:41.533Z,18.13
2023-02-11T12:48:14.337Z,17.30
2023-02-11T12:51:22.676Z,24.40
2023-02-11T12:53:49.436Z,28.50
2023-02-11T12:56:29.206Z,22.53
2023-02-11T12:59:00.108Z,19.37
2023-02-11T13:01:31.995Z,16.23
2023-02-11T13:04:27.028Z,17.80
2023-02-11T13:07:02.528Z,18.17
2023-02-11T13:09:38.696Z,17.63
2023-02-11T13:12:27.108Z,17.17
2023-02-11T13:14:59.215Z,15.77
2023-02-11T13:17:37.526Z,18.07
2023-02-11T13:20:18.494Z,19.57
2023-02-11T13:22:57.325Z,16.70
2023-02-11T13:25:43.128Z,19.03
2023-02-11T13:28:40.780Z,22.07
2023-02-11T13:31:09.388Z,17.00
2023-02-11T13:33:43.059Z,16.70
2023-02-11T13:36:09.911Z,16.03
2023-02-11T13:38:38.144Z,17.80
2023-02-11T13:41:14.583Z,15.80
2023-02-11T13:43:41.857Z,15.33
2023-02-11T13:46:12.386Z,15.07
2023-02-11T13:48:52.670Z,12.67
2023-02-11T13:51:36.386Z,16.90
2023-02-11T13:54:05.368Z,14.80
2023-02-11T13:56:44.123Z,14.07
2023-02-11T13:59:27.345Z,20.50
2023-02-11T14:02:12.752Z,19.53
2023-02-11T14:05:23.272Z,19.37
2023-02-11T14:08:42.026Z,16.33
2023-02-11T14:11:23.928Z,18.37
2023-02-11T14:13:50.594Z,20.30
2023-02-11T14:16:35.586Z,20.37
2023-02-11T14:19:06.246Z,20.07
2023-02-11T14:21:41.674Z,21.67
2023-02-11T14:24:13.009Z,22.37
2023-02-11T14:26:48.907Z,20.73
2023-02-11T14:29:54.051Z,18.80
2023-02-11T14:32:38.914Z,18.47
2023-02-11T14:35:23.608Z,20.53
2023-02-11T14:38:12.361Z,16.90
2023-02-11T14:41:06.634Z,18.93
2023-02-11T14:43:57.809Z,16.77
2023-02-11T14:46:27.834Z,17.53
2023-02-11T14:48:58.403Z,16.47
2023-02-11T14:51:29.535Z,19.30
2023-02-11T14:54:02.726Z,22.93
2023-02-11T14:56:34.338Z,19.57
2023-02-11T14:59:02.771Z,18.47
2023-02-11T15:01:36.147Z,18.40
2023-02-11T15:04:05.319Z,16.67
2023-02-11T15:06:41.092Z,16.57
2023-02-11T15:09:17.678Z,18.30
2023-02-11T15:11:47.737Z,21.47
2023-02-11T15:14:28.421Z,20.20
2023-02-11T15:16:58.360Z,18.30
2023-02-11T15:19:34.518Z,17.90
2023-02-11T15:22:05.828Z,20.40
2023-02-11T15:24:35.310Z,17.53
2023-02-11T15:27:16.229Z,19.07
2023-02-11T15:29:46.757Z,19.97
2023-02-11T15:32:24.871Z,28.07
2023-02-11T15:34:54.017Z,31.20
2023-02-11T15:37:26.597Z,62.10
2023-02-11T15:39:54.694Z,22.40
2023-02-11T15:42:32.517Z,20.00
2023-02-11T15:45:17.393Z,21.83
2023-02-11T15:47:50.921Z,25.87
2023-02-11T15:50:29.421Z,39.47
2023-02-11T15:52:59.385Z,19.00
2023-02-11T15:55:27.608Z,23.20
2023-02-11T15:57:57.525Z,20.37
2023-02-11T16:00:37.824Z,20.17
2023-02-11T16:03:05.194Z,20.47
2023-02-11T16:05:35.894Z,19.63
2023-02-11T16:08:36.816Z,32.23
2023-02-11T16:11:09.796Z,28.50
2023-02-11T16:13:47.187Z,19.33
2023-02-11T16:16:27.506Z,20.50
2023-02-11T16:19:06.240Z,20.57
2023-02-11T16:21:39.387Z,22.17
2023-02-11T16:24:08.886Z,21.13
2023-02-11T16:26:43.320Z,21.07
2023-02-11T16:29:20.265Z,21.93
2023-02-11T16:31:48.401Z,22.73
2023-02-11T16:34:19.648Z,22.37
2023-02-11T16:36:47.698Z,22.17
2023-02-11T16:39:14.687Z,21.27
2023-02-11T16:41:41.462Z,21.40
2023-02-11T16:44:08.360Z,20.40
2023-02-11T16:46:36.818Z,23.57
2023-02-11T16:49:21.965Z,18.30
2023-02-11T16:51:51.436Z,23.93
2023-02-11T16:54:19.199Z,21.43
2023-02-11T16:56:46.555Z,25.27
2023-02-11T16:59:23.261Z,23.47
2023-02-11T17:01:52.144Z,28.50
2023-02-11T17:04:23.509Z,25.03
2023-02-11T17:06:50.621Z,25.33
2023-02-11T17:09:23.078Z,25.13
2023-02-11T17:11:51.094Z,23.27
2023-02-11T17:14:18.671Z,25.37
2023-02-11T17:16:47.147Z,26.53
2023-02-11T17:19:17.047Z,25.43
2023-02-11T17:21:45.904Z,22.60
2023-02-11T17:24:16.629Z,58.23
2023-02-11T17:26:45.091Z,45.30
2023-02-11T17:29:14.985Z,46.60
2023-02-11T17:31:41.972Z,29.50
2023-02-11T17:34:09.290Z,43.03
2023-02-11T17:36:36.599Z,49.05
2023-02-11T17:39:06.959Z,25.53
2023-02-11T17:41:35.029Z,27.37
2023-02-11T17:44:01.733Z,22.53
2023-02-11T17:46:28.687Z,31.93
2023-02-11T17:48:58.975Z,21.67
2023-02-11T17:51:30.518Z,22.40
2023-02-11T17:54:01.184Z,23.57
2023-02-11T17:56:29.975Z,23.43
2023-02-11T17:58:56.807Z,24.33
2023-02-11T18:01:26.488Z,73.30
2023-02-11T18:03:53.370Z,23.93
2023-02-11T18:06:20.701Z,56.50
2023-02-11T18:08:48.143Z,29.17
2023-02-11T18:11:17.617Z,23.57
2023-02-11T18:13:45.438Z,23.83
2023-02-11T18:16:15.941Z,25.67
2023-02-11T18:18:43.480Z,28.07
2023-02-11T18:21:15.357Z,21.63
2023-02-11T18:23:42.969Z,22.23
2023-02-11T18:26:11.731Z,23.13
2023-02-11T18:28:39.652Z,26.80
2023-02-11T18:31:07.238Z,27.00
2023-02-11T18:33:34.620Z,24.33
2023-02-11T18:36:06.338Z,22.83
2023-02-11T18:38:33.280Z,26.98
2023-02-11T18:41:00.189Z,26.27
2023-02-11T18:43:31.738Z,27.70
2023-02-11T18:45:58.566Z,26.77
2023-02-11T18:48:28.730Z,26.77
2023-02-11T18:50:56.161Z,23.80
2023-02-11T18:53:24.558Z,24.63
2023-02-11T18:55:53.174Z,26.87
2023-02-11T18:58:21.324Z,25.97
2023-02-11T19:00:48.850Z,28.57
2023-02-11T19:03:16.364Z,25.07
2023-02-11T19:05:47.759Z,25.40
2023-02-11T19:08:15.582Z,248.17
2023-02-11T19:10:44.166Z,35.57
2023-02-11T19:13:11.621Z,61.77
2023-02-11T19:15:45.820Z,79.50
2023-02-11T19:18:14.297Z,34.90
2023-02-11T19:20:43.071Z,37.33
2023-02-11T19:23:10.887Z,28.40
2023-02-11T19:25:44.250Z,31.27
2023-02-11T19:28:11.040Z,36.87
2023-02-11T19:30:37.979Z,37.20
2023-02-11T19:33:04.901Z,30.17
2023-02-11T19:35:35.719Z,29.90
2023-02-11T19:38:04.330Z,31.87
2023-02-11T19:40:31.552Z,44.03
2023-02-11T19:42:58.280Z,41.80
2023-02-11T19:45:26.423Z,72.57
2023-02-11T19:47:56.947Z,46.50
2023-02-11T19:50:24.397Z,27.20
2023-02-11T19:52:51.265Z,58.20
2023-02-11T19:55:18.341Z,32.03
2023-02-11T19:57:45.153Z,55.37
2023-02-11T20:00:12.766Z,133.00
2023-02-11T20:02:40.586Z,119.60
2023-02-11T20:05:07.716Z,34.03
2023-02-11T20:07:34.843Z,29.73
2023-02-11T20:10:01.714Z,56.93
2023-02-11T20:12:28.443Z,34.40
2023-02-11T20:14:55.140Z,29.07
2023-02-11T20:17:21.922Z,32.40
2023-02-11T20:19:48.669Z,30.23
2023-02-11T20:22:15.436Z,29.87
2023-02-11T20:24:42.182Z,32.73
2023-02-11T20:27:11.373Z,32.77
2023-02-11T20:29:39.066Z,30.37
2023-02-11T20:32:07.141Z,31.77
2023-02-11T20:34:34.307Z,32.83
2023-02-11T20:37:05.066Z,33.63
2023-02-11T20:39:32.100Z,32.33
2023-02-11T20:41:58.882Z,30.13
2023-02-11T20:44:26.761Z,32.03
2023-02-11T20:46:56.574Z,32.67
2023-02-11T20:49:24.625Z,32.17
2023-02-11T20:51:53.683Z,33.00
2023-02-11T20:54:21.789Z,30.90
2023-02-11T20:56:51.215Z,34.53
2023-02-11T20:59:19.210Z,32.13
2023-02-11T21:01:49.043Z,34.77
2023-02-11T21:04:19.740Z,31.10
2023-02-11T21:06:49.865Z,28.07
2023-02-11T21:09:20.128Z,30.17
2023-02-11T21:11:47.716Z,29.27
2023-02-11T21:14:15.116Z,33.87
2023-02-11T21:16:42.282Z,30.60
2023-02-11T21:19:09.116Z,32.23
2023-02-11T21:21:38.136Z,30.97
2023-02-11T21:24:06.700Z,32.33
2023-02-11T21:26:35.432Z,33.23
2023-02-11T21:29:04.306Z,28.17
2023-02-11T21:31:33.180Z,32.57
2023-02-11T21:34:00.145Z,30.93
2023-02-11T21:36:28.399Z,33.43
2023-02-11T21:38:55.359Z,31.37
2023-02-11T21:41:22.668Z,34.97
2023-02-11T21:43:50.391Z,29.97
2023-02-11T21:46:18.520Z,32.03
2023-02-11T21:48:45.464Z,32.27
2023-02-11T21:51:15.587Z,32.43
2023-02-11T21:53:42.344Z,33.33
2023-02-11T21:56:18.412Z,30.43
2023-02-11T21:58:46.386Z,35.17
2023-02-11T22:01:19.346Z,91.63
2023-02-11T22:03:46.927Z,29.70
2023-02-11T22:06:16.535Z,67.40
2023-02-11T22:08:43.447Z,31.80
2023-02-11T22:11:12.256Z,42.83
2023-02-11T22:13:40.279Z,34.27
2023-02-11T22:16:09.547Z,32.57
2023-02-11T22:18:36.490Z,35.03
2023-02-11T22:21:06.909Z,32.03
2023-02-11T22:23:34.255Z,36.23
2023-02-11T22:26:05.403Z,30.37
2023-02-11T22:28:32.203Z,30.53
2023-02-11T22:30:59.149Z,31.60
2023-02-11T22:33:26.955Z,31.77
2023-02-11T22:36:00.954Z,31.80
2023-02-11T22:38:29.136Z,32.20
2023-02-11T22:40:56.054Z,30.67
2023-02-11T22:43:22.918Z,32.47
2023-02-11T22:45:50.557Z,31.80
2023-02-11T22:48:17.582Z,32.03
2023-02-11T22:50:44.469Z,30.40
2023-02-11T22:53:11.242Z,34.50
2023-02-11T22:55:39.220Z,29.40
2023-02-11T22:58:06.628Z,31.33
2023-02-11T23:00:38.576Z,35.43
2023-02-11T23:03:06.749Z,34.57
2023-02-11T23:05:40.823Z,39.50
2023-02-11T23:08:09.366Z,32.17
2023-02-11T23:10:37.739Z,32.23
2023-02-11T23:13:05.458Z,34.40
2023-02-11T23:15:33.002Z,32.57
2023-02-11T23:18:02.694Z,32.10
2023-02-11T23:20:29.490Z,33.03
2023-02-11T23:22:56.236Z,32.70
2023-02-11T23:25:23.236Z,30.73
2023-02-11T23:27:49.969Z,37.17
2023-02-11T23:30:17.076Z,35.17
2023-02-11T23:32:43.795Z,32.27
2023-02-11T23:35:10.685Z,30.93
2023-02-11T23:37:37.442Z,36.80
2023-02-11T23:40:04.481Z,33.80
2023-02-11T23:42:31.167Z,33.23
2023-02-11T23:44:58.056Z,31.43
2023-02-11T23:47:24.869Z,36.67
2023-02-11T23:49:51.597Z,37.33
2023-02-11T23:52:18.483Z,36.57
2023-02-11T23:54:48.120Z,39.57
2023-02-11T23:57:15.352Z,31.67
2023-02-11T23:59:43.229Z,33.73
